createdAt,value
2023-03-29T00:00:38.927Z,5.50
2023-03-29T00:03:06.374Z,5.40
2023-03-29T00:05:36.522Z,5.40
2023-03-29T00:08:04.622Z,5.60
2023-03-29T00:10:33.820Z,5.60
2023-03-29T00:13:01.944Z,5.60
2023-03-29T00:15:29.323Z,5.60
2023-03-29T00:17:57.774Z,5.50
2023-03-29T00:20:25.010Z,5.60
2023-03-29T00:22:52.273Z,5.60
2023-03-29T00:25:19.567Z,5.60
2023-03-29T00:27:47.194Z,5.40
2023-03-29T00:30:15.310Z,5.50
2023-03-29T00:32:42.988Z,5.60
2023-03-29T00:35:11.221Z,5.50
2023-03-29T00:37:38.645Z,5.60
2023-03-29T00:40:09.844Z,5.50
2023-03-29T00:42:37.766Z,5.50
2023-03-29T00:45:12.798Z,5.50
2023-03-29T00:48:00.349Z,5.50
2023-03-29T00:50:54.666Z,5.30
2023-03-29T00:53:34.360Z,5.30
2023-03-29T00:56:14.856Z,5.40
2023-03-29T00:58:50.123Z,5.40
2023-03-29T01:01:26.230Z,5.20
2023-03-29T01:04:00.291Z,5.20
2023-03-29T01:06:31.596Z,5.30
2023-03-29T01:09:02.389Z,5.30
2023-03-29T01:11:42.107Z,5.20
2023-03-29T01:14:19.072Z,5.30
2023-03-29T01:16:47.103Z,5.10
2023-03-29T01:19:19.246Z,5.10
2023-03-29T01:21:51.883Z,5.00
2023-03-29T01:24:45.577Z,5.00
2023-03-29T01:27:15.955Z,5.20
2023-03-29T01:29:50.318Z,5.10
2023-03-29T01:32:26.927Z,5.00
2023-03-29T01:35:03.647Z,5.00
2023-03-29T01:37:59.044Z,4.90
2023-03-29T01:40:29.077Z,4.80
2023-03-29T01:43:19.423Z,4.90
2023-03-29T01:45:53.001Z,4.80
2023-03-29T01:48:44.305Z,4.80
2023-03-29T01:51:17.818Z,4.90
2023-03-29T01:54:03.649Z,4.90
2023-03-29T01:56:37.025Z,5.00
2023-03-29T01:59:08.612Z,5.00
2023-03-29T02:01:40.587Z,4.90
2023-03-29T02:04:13.506Z,4.90
2023-03-29T02:06:41.873Z,4.80
2023-03-29T02:09:09.720Z,4.80
2023-03-29T02:11:37.604Z,4.90
2023-03-29T02:14:05.645Z,5.00
2023-03-29T02:16:39.620Z,4.90
2023-03-29T02:19:10.171Z,4.90
2023-03-29T02:21:43.637Z,4.80
2023-03-29T02:24:15.610Z,4.90
2023-03-29T02:26:43.435Z,4.90
2023-03-29T02:29:11.123Z,4.90
2023-03-29T02:31:46.515Z,4.80
2023-03-29T02:34:50.999Z,4.70
2023-03-29T02:37:21.928Z,4.70
2023-03-29T02:39:51.482Z,4.80
2023-03-29T02:42:20.671Z,4.70
2023-03-29T02:44:52.873Z,4.80
2023-03-29T02:47:28.944Z,4.80
2023-03-29T02:49:57.354Z,4.80
2023-03-29T02:52:28.769Z,4.70
2023-03-29T02:54:57.207Z,4.60
2023-03-29T02:57:26.901Z,4.70
2023-03-29T02:59:57.221Z,4.90
2023-03-29T03:02:28.039Z,4.80
2023-03-29T03:04:55.635Z,4.70
2023-03-29T03:07:22.906Z,4.70
2023-03-29T03:09:50.219Z,4.80
2023-03-29T03:12:17.755Z,4.80
2023-03-29T03:14:45.064Z,4.70
2023-03-29T03:17:12.485Z,4.80
2023-03-29T03:19:39.956Z,5.00
2023-03-29T03:22:08.018Z,4.90
2023-03-29T03:24:35.644Z,4.90
2023-03-29T03:27:03.000Z,4.90
2023-03-29T03:29:30.312Z,4.80
2023-03-29T03:31:57.783Z,4.70
2023-03-29T03:34:25.141Z,4.60
2023-03-29T03:36:55.656Z,4.70
2023-03-29T03:39:23.233Z,4.60
2023-03-29T03:41:50.534Z,4.60
2023-03-29T03:44:17.815Z,4.70
2023-03-29T03:46:45.094Z,4.80
2023-03-29T03:49:12.401Z,4.80
2023-03-29T03:51:39.743Z,4.80
2023-03-29T03:54:07.069Z,4.90
2023-03-29T03:56:34.469Z,4.70
2023-03-29T03:59:01.631Z,4.80
2023-03-29T04:01:28.868Z,4.80
2023-03-29T04:03:56.169Z,4.80
2023-03-29T04:06:23.592Z,4.80
2023-03-29T04:08:50.858Z,4.60
2023-03-29T04:11:18.141Z,4.60
2023-03-29T04:13:46.382Z,4.70
2023-03-29T04:16:13.647Z,4.70
2023-03-29T04:18:41.365Z,4.80
2023-03-29T04:21:08.793Z,4.80
2023-03-29T04:23:39.567Z,4.70
2023-03-29T04:26:07.994Z,4.80
2023-03-29T04:28:35.602Z,4.80
2023-03-29T04:31:03.008Z,4.80
2023-03-29T04:33:30.754Z,4.70
2023-03-29T04:35:58.801Z,4.70
2023-03-29T04:38:26.922Z,4.90
2023-03-29T04:40:55.270Z,4.90
2023-03-29T04:43:23.712Z,4.90
2023-03-29T04:45:51.158Z,5.00
2023-03-29T04:48:18.446Z,4.80
2023-03-29T04:50:48.755Z,4.90
2023-03-29T04:53:15.958Z,4.80
2023-03-29T04:55:43.519Z,4.90
2023-03-29T04:58:10.702Z,5.10
2023-03-29T05:00:38.169Z,5.00
2023-03-29T05:03:06.185Z,5.00
2023-03-29T05:05:33.569Z,5.00
2023-03-29T05:08:00.929Z,5.10
2023-03-29T05:10:28.434Z,5.00
2023-03-29T05:12:58.909Z,4.90
2023-03-29T05:15:26.481Z,4.90
2023-03-29T05:17:53.854Z,5.10
2023-03-29T05:20:22.324Z,5.30
2023-03-29T05:22:49.618Z,5.20
2023-03-29T05:25:18.607Z,5.50
2023-03-29T05:27:50.056Z,5.30
2023-03-29T05:30:17.714Z,5.50
2023-03-29T05:32:51.010Z,5.60
2023-03-29T05:35:18.266Z,5.50
2023-03-29T05:37:47.860Z,5.60
2023-03-29T05:40:15.268Z,5.70
2023-03-29T05:42:42.965Z,5.50
2023-03-29T05:45:11.669Z,5.50
2023-03-29T05:47:39.243Z,5.60
2023-03-29T05:50:10.567Z,5.60
2023-03-29T05:52:39.001Z,5.70
2023-03-29T05:55:06.871Z,5.80
2023-03-29T05:57:37.802Z,5.70
2023-03-29T06:00:25.978Z,5.60
2023-03-29T06:02:53.977Z,5.60
2023-03-29T06:05:21.290Z,5.80
2023-03-29T06:07:52.197Z,5.90
2023-03-29T06:10:20.530Z,6.00
2023-03-29T06:12:47.927Z,6.10
2023-03-29T06:15:16.252Z,6.10
2023-03-29T06:17:47.479Z,6.10
2023-03-29T06:20:15.110Z,6.10
2023-03-29T06:22:42.748Z,6.10
2023-03-29T06:25:14.837Z,6.10
2023-03-29T06:27:42.213Z,6.20
2023-03-29T06:30:10.020Z,6.10
2023-03-29T06:32:37.659Z,6.20
2023-03-29T06:35:05.322Z,6.30
2023-03-29T06:37:32.959Z,6.30
2023-03-29T06:40:01.221Z,6.00
2023-03-29T06:42:28.727Z,6.00
2023-03-29T06:44:55.943Z,6.10
2023-03-29T06:47:29.388Z,6.20
2023-03-29T06:49:57.727Z,6.30
2023-03-29T06:52:25.065Z,6.30
2023-03-29T06:54:52.407Z,6.10
2023-03-29T06:57:19.939Z,6.20
2023-03-29T06:59:48.160Z,6.40
2023-03-29T07:02:15.968Z,6.50
2023-03-29T07:04:43.386Z,6.60
2023-03-29T07:07:20.534Z,6.60
2023-03-29T07:09:54.115Z,6.50
2023-03-29T07:12:23.269Z,6.70
2023-03-29T07:14:50.608Z,6.50
2023-03-29T07:17:18.790Z,6.40
2023-03-29T07:19:47.077Z,6.60
2023-03-29T07:22:15.483Z,6.50
2023-03-29T07:24:42.823Z,6.60
2023-03-29T07:27:10.216Z,6.60
2023-03-29T07:29:37.989Z,6.70
2023-03-29T07:32:05.872Z,6.60
2023-03-29T07:34:33.631Z,6.80
2023-03-29T07:37:01.168Z,7.00
2023-03-29T07:39:28.570Z,7.00
2023-03-29T07:41:58.641Z,7.00
2023-03-29T07:44:27.307Z,7.00
2023-03-29T07:46:55.154Z,7.10
2023-03-29T07:49:22.419Z,7.10
2023-03-29T07:51:49.729Z,7.20
2023-03-29T07:54:17.324Z,7.20
2023-03-29T07:56:44.660Z,7.30
2023-03-29T07:59:11.994Z,7.40
2023-03-29T08:01:41.281Z,7.40
2023-03-29T08:04:08.691Z,7.50
2023-03-29T08:06:36.067Z,7.60
2023-03-29T08:09:03.284Z,7.60
2023-03-29T08:11:30.619Z,7.60
2023-03-29T08:13:59.224Z,7.70
2023-03-29T08:16:27.032Z,7.80
2023-03-29T08:18:54.462Z,7.90
2023-03-29T08:21:21.954Z,7.90
2023-03-29T08:23:49.212Z,7.90
2023-03-29T08:26:16.460Z,7.90
2023-03-29T08:28:44.209Z,8.00
2023-03-29T08:31:14.223Z,8.30
2023-03-29T08:33:44.228Z,8.50
2023-03-29T08:36:11.624Z,8.50
2023-03-29T08:38:38.838Z,8.40
2023-03-29T08:41:36.801Z,8.30
2023-03-29T08:44:33.051Z,8.50
2023-03-29T08:47:03.265Z,8.70
2023-03-29T08:49:31.933Z,8.80
2023-03-29T08:52:04.907Z,8.90
2023-03-29T08:54:46.309Z,9.20
2023-03-29T08:57:23.991Z,9.30
2023-03-29T08:59:53.608Z,9.30
2023-03-29T09:02:26.424Z,9.30
2023-03-29T09:05:00.215Z,9.50
2023-03-29T09:07:28.146Z,9.70
2023-03-29T09:09:55.437Z,9.80
2023-03-29T09:13:02.705Z,9.90
2023-03-29T09:16:01.270Z,10.00
2023-03-29T09:21:46.948Z,10.20
2023-03-29T09:24:24.122Z,10.40
2023-03-29T09:27:23.568Z,10.70
2023-03-29T09:30:06.414Z,10.90
2023-03-29T09:33:06.141Z,10.90
2023-03-29T09:35:41.298Z,11.00
2023-03-29T09:38:13.618Z,11.10
2023-03-29T09:40:55.206Z,11.30
2023-03-29T09:43:31.930Z,11.40
2023-03-29T09:46:03.467Z,11.60
2023-03-29T09:48:37.979Z,11.70
2023-03-29T09:51:08.914Z,11.60
2023-03-29T09:53:36.426Z,11.80
2023-03-29T09:56:06.929Z,12.20
2023-03-29T09:58:37.699Z,11.90
2023-03-29T10:01:16.842Z,12.20
2023-03-29T10:03:54.365Z,12.60
2023-03-29T10:06:25.665Z,12.10
2023-03-29T10:08:59.170Z,11.90
2023-03-29T10:11:30.813Z,11.30
2023-03-29T10:14:03.222Z,11.80
2023-03-29T10:16:47.786Z,12.10
2023-03-29T10:19:44.309Z,12.40
2023-03-29T10:22:27.892Z,12.90
2023-03-29T10:24:57.342Z,13.50
2023-03-29T10:27:31.785Z,13.90
2023-03-29T10:30:00.896Z,13.70
2023-03-29T10:32:33.642Z,13.60
2023-03-29T10:35:21.622Z,13.30
2023-03-29T10:38:00.541Z,13.30
2023-03-29T10:40:38.475Z,13.30
2023-03-29T10:43:17.971Z,12.30
2023-03-29T10:45:50.026Z,12.10
2023-03-29T10:48:18.041Z,12.00
2023-03-29T10:50:58.910Z,12.00
2023-03-29T10:53:32.983Z,12.60
2023-03-29T10:56:25.004Z,12.30
2023-03-29T10:58:55.601Z,12.70
2023-03-29T11:01:30.950Z,12.40
2023-03-29T11:04:26.517Z,12.20
2023-03-29T11:07:08.081Z,12.90
2023-03-29T11:10:15.317Z,13.00
2023-03-29T11:13:15.000Z,13.00
2023-03-29T11:16:16.764Z,13.20
2023-03-29T11:18:55.674Z,14.10
2023-03-29T11:21:30.750Z,14.70
2023-03-29T11:24:34.631Z,14.40
2023-03-29T11:27:41.596Z,14.60
2023-03-29T11:30:20.956Z,14.80
2023-03-29T11:33:05.187Z,15.00
2023-03-29T11:35:55.292Z,15.60
2023-03-29T11:38:34.091Z,15.50
2023-03-29T11:41:19.440Z,16.00
2023-03-29T11:44:01.798Z,15.50
2023-03-29T11:46:41.902Z,15.50
2023-03-29T11:49:19.654Z,14.70
2023-03-29T11:52:34.735Z,14.60
2023-03-29T11:55:08.110Z,14.00
2023-03-29T11:57:48.242Z,13.70
2023-03-29T12:00:27.513Z,13.20
2023-03-29T12:03:14.759Z,13.90
2023-03-29T12:05:51.061Z,14.00
2023-03-29T12:08:41.021Z,14.10
2023-03-29T12:11:23.208Z,15.30
2023-03-29T12:13:57.984Z,16.30
2023-03-29T12:16:50.301Z,16.20
2023-03-29T12:19:32.929Z,16.70
2023-03-29T12:22:01.451Z,16.50
2023-03-29T12:24:31.927Z,17.00
2023-03-29T12:27:08.656Z,16.40
2023-03-29T12:30:17.445Z,15.70
2023-03-29T12:33:10.455Z,17.70
2023-03-29T12:35:54.411Z,17.30
2023-03-29T12:38:24.702Z,17.70
2023-03-29T12:40:57.444Z,18.30
2023-03-29T12:43:33.528Z,18.50
2023-03-29T12:46:25.988Z,19.40
2023-03-29T12:49:01.472Z,21.30
2023-03-29T12:51:34.337Z,20.60
2023-03-29T12:54:15.219Z,18.70
2023-03-29T12:56:58.471Z,19.50
2023-03-29T12:59:39.691Z,20.70
2023-03-29T13:02:16.828Z,21.70
2023-03-29T13:04:44.320Z,20.70
2023-03-29T13:07:35.434Z,20.60
2023-03-29T13:10:13.037Z,17.50
2023-03-29T13:12:43.321Z,15.70
2023-03-29T13:15:19.355Z,17.90
2023-03-29T13:18:20.670Z,20.70
2023-03-29T13:21:09.397Z,20.10
2023-03-29T13:23:52.262Z,21.20
2023-03-29T13:26:45.893Z,21.60
2023-03-29T13:29:56.357Z,22.20
2023-03-29T13:32:50.721Z,22.50
2023-03-29T13:36:11.732Z,23.00
2023-03-29T13:38:49.008Z,22.90
2023-03-29T13:41:38.985Z,22.60
2023-03-29T13:44:29.496Z,22.90
2023-03-29T13:47:29.158Z,22.00
2023-03-29T13:49:58.325Z,21.20
2023-03-29T13:52:32.823Z,22.50
2023-03-29T13:55:18.080Z,20.70
2023-03-29T13:57:59.999Z,19.20
2023-03-29T14:00:51.105Z,20.70
2023-03-29T14:03:33.306Z,20.10
2023-03-29T14:06:02.700Z,21.20
2023-03-29T14:08:35.862Z,21.10
2023-03-29T14:11:08.495Z,20.30
2023-03-29T14:13:35.887Z,18.50
2023-03-29T14:16:09.523Z,20.80
2023-03-29T14:18:55.952Z,22.70
2023-03-29T14:21:23.406Z,23.30
2023-03-29T14:24:00.498Z,23.80
2023-03-29T14:26:33.509Z,22.60
2023-03-29T14:29:02.746Z,21.70
2023-03-29T14:31:42.087Z,23.10
2023-03-29T14:34:22.889Z,24.00
2023-03-29T14:36:54.315Z,21.90
2023-03-29T14:39:23.596Z,22.90
2023-03-29T14:41:54.262Z,23.50
2023-03-29T14:44:23.932Z,23.90
2023-03-29T14:46:51.497Z,24.50
2023-03-29T14:49:25.864Z,24.90
2023-03-29T14:51:54.905Z,24.20
2023-03-29T14:54:26.796Z,23.00
2023-03-29T14:57:00.238Z,22.60
2023-03-29T14:59:45.880Z,22.50
2023-03-29T15:02:33.531Z,22.60
2023-03-29T15:05:07.617Z,21.30
2023-03-29T15:07:41.168Z,21.20
2023-03-29T15:10:09.071Z,21.40
2023-03-29T15:12:39.761Z,20.70
2023-03-29T15:15:12.034Z,21.00
2023-03-29T15:17:50.867Z,20.10
2023-03-29T15:20:27.439Z,19.70
2023-03-29T15:22:59.705Z,18.80
2023-03-29T15:25:33.263Z,19.40
2023-03-29T15:28:01.652Z,17.90
2023-03-29T15:30:37.153Z,17.70
2023-03-29T15:33:44.438Z,16.80
2023-03-29T15:36:24.296Z,16.40
2023-03-29T15:38:51.841Z,16.20
2023-03-29T15:41:21.633Z,16.10
2023-03-29T15:43:48.963Z,15.90
2023-03-29T15:46:24.500Z,15.70
2023-03-29T15:48:51.724Z,15.90
2023-03-29T15:51:21.474Z,15.80
2023-03-29T15:53:51.467Z,16.90
2023-03-29T15:56:21.205Z,17.80
2023-03-29T15:58:48.839Z,17.60
2023-03-29T16:01:23.791Z,17.70
2023-03-29T16:03:51.255Z,17.70
2023-03-29T16:06:31.955Z,17.50
2023-03-29T16:09:02.124Z,19.60
2023-03-29T16:11:29.428Z,18.70
2023-03-29T16:13:57.346Z,19.40
2023-03-29T16:16:25.556Z,17.40
2023-03-29T16:18:52.791Z,15.70
2023-03-29T16:21:22.863Z,15.00
2023-03-29T16:23:57.804Z,14.80
2023-03-29T16:26:26.414Z,14.80
2023-03-29T16:28:58.658Z,16.80
2023-03-29T16:31:31.978Z,17.60
2023-03-29T16:34:00.732Z,15.90
2023-03-29T16:36:28.365Z,15.00
2023-03-29T16:38:55.929Z,14.90
2023-03-29T16:41:23.257Z,14.80
2023-03-29T16:43:50.651Z,14.40
2023-03-29T16:46:17.966Z,13.90
2023-03-29T16:48:45.183Z,13.70
2023-03-29T16:51:12.436Z,13.70
2023-03-29T16:53:42.124Z,13.50
2023-03-29T16:56:10.834Z,13.20
2023-03-29T16:58:47.412Z,13.20
2023-03-29T17:01:27.333Z,13.00
2023-03-29T17:03:59.975Z,12.90
2023-03-29T17:06:34.050Z,12.80
2023-03-29T17:09:01.654Z,12.70
2023-03-29T17:11:29.075Z,12.60
2023-03-29T17:13:56.664Z,12.50
2023-03-29T17:16:24.285Z,12.40
2023-03-29T17:18:51.504Z,12.50
2023-03-29T17:21:18.818Z,12.40
2023-03-29T17:23:46.175Z,12.20
2023-03-29T17:26:13.488Z,11.90
2023-03-29T17:28:40.797Z,12.00
2023-03-29T17:31:09.712Z,12.10
2023-03-29T17:33:38.257Z,12.00
2023-03-29T17:36:06.277Z,11.90
2023-03-29T17:38:34.439Z,12.00
2023-03-29T17:41:03.068Z,11.90
2023-03-29T17:43:41.292Z,11.80
2023-03-29T17:46:17.651Z,11.70
2023-03-29T17:48:47.822Z,11.60
2023-03-29T17:51:15.105Z,11.80
2023-03-29T17:53:46.776Z,11.80
2023-03-29T17:56:16.570Z,11.70
2023-03-29T17:58:49.200Z,11.50
2023-03-29T18:01:21.492Z,11.40
2023-03-29T18:03:49.276Z,11.50
2023-03-29T18:06:20.416Z,11.50
2023-03-29T18:08:47.774Z,11.40
2023-03-29T18:11:22.281Z,11.40
2023-03-29T18:14:23.772Z,11.40
2023-03-29T18:16:51.165Z,11.40
2023-03-29T18:19:23.151Z,11.30
2023-03-29T18:21:51.240Z,11.40
2023-03-29T18:24:18.516Z,11.40
2023-03-29T18:26:46.039Z,11.40
2023-03-29T18:29:16.439Z,11.30
2023-03-29T18:31:44.123Z,11.30
2023-03-29T18:34:11.404Z,11.30
2023-03-29T18:36:38.720Z,11.40
2023-03-29T18:39:05.982Z,11.30
2023-03-29T18:41:35.781Z,11.30
2023-03-29T18:44:03.816Z,11.30
2023-03-29T18:46:31.941Z,11.20
2023-03-29T18:49:00.889Z,11.10
2023-03-29T18:51:28.391Z,10.90
2023-03-29T18:53:56.620Z,11.00
2023-03-29T18:56:23.961Z,10.90
2023-03-29T18:58:51.645Z,10.80
2023-03-29T19:01:21.331Z,10.90
2023-03-29T19:03:51.779Z,10.80
2023-03-29T19:06:19.400Z,10.80
2023-03-29T19:08:46.592Z,10.80
2023-03-29T19:11:15.049Z,10.80
2023-03-29T19:13:43.175Z,10.90
2023-03-29T19:16:10.511Z,10.90
2023-03-29T19:18:43.496Z,10.80
2023-03-29T19:21:13.396Z,10.80
2023-03-29T19:23:41.253Z,10.80
2023-03-29T19:26:11.780Z,10.80
2023-03-29T19:28:39.922Z,10.60
2023-03-29T19:31:13.138Z,10.30
2023-03-29T19:33:53.026Z,10.40
2023-03-29T19:36:30.370Z,9.90
2023-03-29T19:38:57.897Z,9.90
2023-03-29T19:41:31.599Z,10.20
2023-03-29T19:44:03.220Z,10.40
2023-03-29T19:46:30.953Z,10.20
2023-03-29T19:49:07.199Z,9.90
2023-03-29T19:51:48.840Z,9.90
2023-03-29T19:54:29.540Z,10.10
2023-03-29T19:56:57.594Z,10.10
2023-03-29T19:59:34.163Z,10.10
2023-03-29T20:02:02.650Z,9.80
2023-03-29T20:04:34.811Z,9.50
2023-03-29T20:07:12.070Z,9.40
2023-03-29T20:09:45.225Z,9.10
2023-03-29T20:12:12.820Z,9.00
2023-03-29T20:14:40.471Z,8.90
2023-03-29T20:17:07.766Z,9.00
2023-03-29T20:19:36.874Z,8.80
2023-03-29T20:22:04.777Z,8.80
2023-03-29T20:24:32.778Z,8.70
2023-03-29T20:27:00.143Z,8.60
2023-03-29T20:29:27.775Z,8.50
2023-03-29T20:31:55.062Z,8.30
2023-03-29T20:34:22.474Z,8.20
2023-03-29T20:36:49.880Z,7.90
2023-03-29T20:39:19.011Z,8.10
2023-03-29T20:41:47.914Z,8.50
2023-03-29T20:44:18.630Z,8.80
2023-03-29T20:46:54.617Z,8.90
2023-03-29T20:49:26.623Z,8.70
2023-03-29T20:51:58.591Z,8.60
2023-03-29T20:54:26.650Z,8.60
2023-03-29T20:56:55.079Z,8.60
2023-03-29T20:59:23.198Z,8.80
2023-03-29T21:01:52.359Z,8.80
2023-03-29T21:04:27.346Z,8.80
2023-03-29T21:07:09.920Z,8.70
2023-03-29T21:09:45.009Z,8.90
2023-03-29T21:12:18.430Z,8.90
2023-03-29T21:14:47.634Z,9.10
2023-03-29T21:17:15.358Z,9.10
2023-03-29T21:19:42.637Z,9.20
2023-03-29T21:22:13.831Z,9.10
2023-03-29T21:24:41.458Z,9.10
2023-03-29T21:27:08.724Z,9.10
2023-03-29T21:29:44.057Z,8.70
2023-03-29T21:32:14.391Z,8.60
2023-03-29T21:34:41.716Z,8.40
2023-03-29T21:37:09.045Z,8.20
2023-03-29T21:40:06.430Z,8.10
2023-03-29T21:42:37.106Z,7.90
2023-03-29T21:45:07.666Z,7.80
2023-03-29T21:47:37.827Z,7.90
2023-03-29T21:50:13.072Z,7.80
2023-03-29T21:53:00.619Z,7.80
2023-03-29T21:56:08.862Z,7.60
2023-03-29T21:58:39.641Z,7.60
2023-03-29T22:01:39.929Z,7.40
2023-03-29T22:07:43.424Z,7.30
2023-03-29T22:10:23.264Z,7.20
2023-03-29T22:13:02.568Z,7.30
2023-03-29T22:15:38.608Z,7.30
2023-03-29T22:18:17.754Z,7.30
2023-03-29T22:21:19.532Z,7.30
2023-03-29T22:24:12.219Z,7.10
2023-03-29T22:26:47.215Z,6.90
2023-03-29T22:29:24.975Z,7.00
2023-03-29T22:31:52.482Z,6.90
2023-03-29T22:34:34.124Z,6.70
2023-03-29T22:37:11.007Z,6.90
2023-03-29T22:39:41.545Z,6.80
2023-03-29T22:42:08.784Z,6.90
2023-03-29T22:45:02.280Z,6.70
2023-03-29T22:47:34.348Z,6.80
2023-03-29T22:50:04.665Z,6.80
2023-03-29T22:52:32.316Z,6.90
2023-03-29T22:55:00.854Z,6.90
2023-03-29T22:57:39.881Z,7.00
2023-03-29T23:00:11.819Z,6.90
2023-03-29T23:02:41.990Z,6.80
2023-03-29T23:05:09.483Z,6.70
2023-03-29T23:07:37.073Z,6.80
2023-03-29T23:10:08.123Z,6.80
2023-03-29T23:12:38.186Z,6.80
2023-03-29T23:15:06.599Z,6.70
2023-03-29T23:17:35.086Z,6.80
2023-03-29T23:20:06.023Z,6.80
2023-03-29T23:22:34.433Z,6.80
2023-03-29T23:25:01.706Z,6.80
2023-03-29T23:27:28.984Z,6.80
2023-03-29T23:29:56.498Z,6.90
2023-03-29T23:32:23.891Z,6.80
2023-03-29T23:34:51.166Z,6.80
2023-03-29T23:37:18.609Z,6.90
2023-03-29T23:39:45.832Z,6.80
2023-03-29T23:42:13.073Z,6.80
2023-03-29T23:44:40.404Z,6.90
2023-03-29T23:47:09.422Z,6.30
2023-03-29T23:49:36.803Z,6.50
2023-03-29T23:52:04.232Z,6.60
2023-03-29T23:54:34.257Z,6.60
2023-03-29T23:57:01.626Z,6.60
2023-03-29T23:59:30.854Z,6.30
